createdAt,value
2022-10-05T00:03:12.869Z,7
2022-10-05T00:08:13.104Z,7.1
2022-10-05T00:14:02.596Z,7.1
2022-10-05T00:19:02.823Z,7
2022-10-05T00:24:02.841Z,6.9
2022-10-05T00:29:13.150Z,6.7
2022-10-05T00:35:02.914Z,6.4
2022-10-05T00:40:13.087Z,6.5
2022-10-05T00:45:13.154Z,6.6
2022-10-05T00:50:13.234Z,6.7
2022-10-05T00:56:02.631Z,6.9
2022-10-05T01:01:02.716Z,7
2022-10-05T01:06:12.876Z,7.2
2022-10-05T01:11:12.897Z,7.2
2022-10-05T01:16:13.008Z,7.2
2022-10-05T01:22:02.607Z,7.2
2022-10-05T01:27:02.609Z,7.1
2022-10-05T01:32:02.652Z,6.6
2022-10-05T01:37:12.904Z,6.4
2022-10-05T01:42:12.905Z,6.3
2022-10-05T01:48:02.585Z,6.5
2022-10-05T01:53:02.619Z,6.7
2022-10-05T01:58:02.826Z,7
2022-10-05T02:03:12.936Z,6.8
2022-10-05T02:08:13.078Z,6.6
2022-10-05T02:14:02.804Z,6.8
2022-10-05T02:19:02.882Z,6.8
2022-10-05T02:24:13.088Z,7
2022-10-05T02:29:13.132Z,6.9
2022-10-05T02:35:02.637Z,7
2022-10-05T02:40:13.072Z,7.8
2022-10-05T02:45:13.130Z,7.8
2022-10-05T02:51:02.783Z,7.9
2022-10-05T02:56:02.816Z,8.3
2022-10-05T03:01:13.147Z,8.2
2022-10-05T03:06:13.126Z,8.1
2022-10-05T03:12:02.856Z,8.2
2022-10-05T03:17:13.090Z,8
2022-10-05T03:22:13.120Z,7.9
2022-10-05T03:28:02.851Z,7.7
2022-10-05T03:33:02.832Z,7.8
2022-10-05T03:38:12.869Z,7.8
2022-10-05T03:43:12.894Z,7.8
2022-10-05T03:48:13.117Z,7.8
2022-10-05T03:53:13.166Z,7.8
2022-10-05T03:58:22.342Z,7.7
2022-10-05T04:04:02.801Z,7.9
2022-10-05T04:09:02.849Z,7.7
2022-10-05T04:14:12.936Z,7.8
2022-10-05T04:19:13.034Z,7.3
2022-10-05T04:24:13.085Z,7.2
2022-10-05T04:30:02.792Z,7.5
2022-10-05T04:35:13.083Z,7.5
2022-10-05T04:40:13.092Z,7.6
2022-10-05T04:46:02.818Z,7.6
2022-10-05T04:51:12.870Z,7.9
2022-10-05T04:56:13.082Z,8.1
2022-10-05T05:02:02.836Z,8.2
2022-10-05T05:07:02.831Z,8.1
2022-10-05T05:12:02.821Z,8.3
2022-10-05T05:17:13.426Z,8.5
2022-10-05T05:22:13.130Z,8.5
2022-10-05T05:28:02.809Z,8.6
2022-10-05T05:33:02.847Z,8.7
2022-10-05T05:38:22.196Z,8.5
2022-10-05T05:44:02.776Z,8.3
2022-10-05T05:49:02.956Z,8.3
2022-10-05T05:54:02.808Z,8.4
2022-10-05T05:59:13.087Z,8.8
2022-10-05T06:05:02.837Z,8.9
2022-10-05T06:10:13.063Z,9.1
2022-10-05T06:15:13.063Z,9.1
2022-10-05T06:20:13.181Z,9.2
2022-10-05T06:26:04.185Z,9.1
2022-10-05T06:31:13.116Z,9.3
2022-10-05T06:36:13.115Z,9.3
2022-10-05T06:42:02.818Z,9.4
2022-10-05T06:47:02.849Z,9.4
2022-10-05T06:52:13.119Z,9.6
2022-10-05T06:58:02.663Z,9.6
2022-10-05T07:03:12.860Z,9.7
2022-10-05T07:09:02.579Z,9.9
2022-10-05T07:14:02.712Z,10
2022-10-05T07:19:12.905Z,10
2022-10-05T07:25:02.619Z,10.3
2022-10-05T07:30:02.663Z,10.3
2022-10-05T07:35:02.699Z,10.3
2022-10-05T07:40:12.858Z,10.4
2022-10-05T07:45:12.879Z,10.6
2022-10-05T07:50:12.928Z,10.4
2022-10-05T07:56:02.705Z,10.5
2022-10-05T08:01:12.888Z,10.5
2022-10-05T08:06:12.906Z,10.6
2022-10-05T08:12:02.746Z,10.6
2022-10-05T08:17:02.878Z,10.5
2022-10-05T08:22:13.118Z,10.5
2022-10-05T08:28:02.639Z,10.6
2022-10-05T08:33:02.826Z,10.7
2022-10-05T08:38:12.838Z,10.8
2022-10-05T08:43:12.955Z,10.8
2022-10-05T08:48:13.093Z,10.6
2022-10-05T08:53:13.168Z,10.7
2022-10-05T08:59:02.816Z,11
2022-10-05T09:04:02.794Z,11
2022-10-05T09:09:13.099Z,11
2022-10-05T09:15:24.191Z,11.1
2022-10-05T09:20:13.084Z,10.9
2022-10-05T09:26:02.877Z,11
2022-10-05T09:31:13.222Z,11
2022-10-05T09:36:13.132Z,11.1
2022-10-05T09:42:02.768Z,11.3
2022-10-05T09:47:12.979Z,11.3
2022-10-05T09:52:17.908Z,11.5
2022-10-05T09:58:02.826Z,11.4
2022-10-05T10:03:13.245Z,11.6
2022-10-05T10:09:02.824Z,11.6
2022-10-05T10:14:13.107Z,11.5
2022-10-05T10:19:13.202Z,11.5
2022-10-05T10:25:02.832Z,11.5
2022-10-05T10:30:13.104Z,11.7
2022-10-05T10:35:13.183Z,11.6
2022-10-05T10:41:02.646Z,11.8
2022-10-05T10:46:02.906Z,11.8
2022-10-05T10:51:13.290Z,11.7
2022-10-05T10:57:02.646Z,11.7
2022-10-05T11:02:02.866Z,11.5
2022-10-05T11:07:02.981Z,11.5
2022-10-05T11:12:02.836Z,11.6
2022-10-05T11:17:13.139Z,11.6
2022-10-05T11:23:02.896Z,12
2022-10-05T11:28:13.017Z,11.8
2022-10-05T11:33:13.150Z,11.9
2022-10-05T11:39:02.729Z,10.9
2022-10-05T11:44:06.200Z,11.1
2022-10-05T11:49:12.975Z,11
2022-10-05T11:54:13.146Z,11.1
2022-10-05T12:00:02.792Z,11.1
2022-10-05T12:05:02.912Z,10.5
2022-10-05T12:10:02.966Z,10.2
2022-10-05T12:15:13.128Z,10.6
2022-10-05T12:21:02.787Z,10.3
2022-10-05T12:26:02.872Z,10.3
2022-10-05T12:31:13.150Z,10.4
2022-10-05T12:36:13.111Z,10.1
2022-10-05T12:42:02.971Z,10.3
2022-10-05T12:47:02.857Z,10.3
2022-10-05T12:52:02.902Z,10.4
2022-10-05T12:57:12.928Z,11
2022-10-05T13:02:13.053Z,10.5
2022-10-05T13:08:02.639Z,11
2022-10-05T13:13:02.719Z,10.3
2022-10-05T13:18:13.268Z,10
2022-10-05T13:24:02.619Z,10.1
2022-10-05T13:29:02.767Z,10.6
2022-10-05T13:34:12.932Z,10.3
2022-10-05T13:39:12.974Z,10.5
2022-10-05T13:44:12.990Z,10.5
2022-10-05T13:50:02.676Z,10.7
2022-10-05T13:55:12.968Z,10.8
2022-10-05T14:01:02.714Z,11
2022-10-05T14:06:02.699Z,11.2
2022-10-05T14:19:02.845Z,11.1
2022-10-05T14:24:20.207Z,11.4
2022-10-05T14:30:02.856Z,11.7
2022-10-05T14:35:02.867Z,11.7
2022-10-05T14:40:13.134Z,11.7
2022-10-05T14:46:03.040Z,11.4
2022-10-05T14:51:13.125Z,11.3
2022-10-05T14:56:13.505Z,11.4
2022-10-05T15:02:02.882Z,11.4
2022-10-05T15:07:13.014Z,11.5
2022-10-05T15:12:13.182Z,11.8
2022-10-05T15:18:02.863Z,11.5
2022-10-05T15:23:02.885Z,11.6
2022-10-05T15:28:13.257Z,11.6
2022-10-05T15:33:22.193Z,11.8
2022-10-05T15:39:02.905Z,11.8
2022-10-05T15:44:13.151Z,11.9
2022-10-05T15:49:13.163Z,11.9
2022-10-05T15:55:02.796Z,12.1
2022-10-05T16:00:13.173Z,12.1
2022-10-05T16:06:02.686Z,12.3
2022-10-05T16:11:02.740Z,12.4
2022-10-05T16:16:02.926Z,12.5
2022-10-05T16:21:04.890Z,12.6
2022-10-05T16:26:13.201Z,12.6
2022-10-05T16:31:13.250Z,12.5
2022-10-05T16:37:02.884Z,12.6
2022-10-05T16:42:13.001Z,12.6
2022-10-05T16:47:13.168Z,12.6
2022-10-05T16:53:02.851Z,12.7
2022-10-05T16:58:02.887Z,12.8
2022-10-05T17:03:13.181Z,12.8
2022-10-05T17:08:13.181Z,12.8
2022-10-05T17:14:02.984Z,12.8
2022-10-05T17:19:12.938Z,12.9
2022-10-05T17:24:13.224Z,12.9
2022-10-05T17:30:02.726Z,13
2022-10-05T17:35:02.898Z,13
2022-10-05T17:40:12.971Z,13.1
2022-10-05T17:45:13.281Z,13
2022-10-05T17:50:13.194Z,13
2022-10-05T17:56:02.914Z,13.1
2022-10-05T18:01:03.089Z,13.1
2022-10-05T18:06:12.997Z,13
2022-10-05T18:11:13.199Z,13.1
2022-10-05T18:17:03.018Z,13.1
2022-10-05T18:22:13.169Z,13.1
2022-10-05T18:28:02.960Z,13
2022-10-05T18:33:02.929Z,13
2022-10-05T18:38:13.218Z,13
2022-10-05T18:43:17.839Z,12.8
2022-10-05T18:49:02.760Z,12.7
2022-10-05T18:54:03.034Z,12.6
2022-10-05T18:59:13.203Z,12.5
2022-10-05T19:05:02.991Z,12.4
2022-10-05T19:10:13.203Z,12.3
2022-10-05T19:15:13.245Z,12.3
2022-10-05T19:21:02.973Z,12.3
2022-10-05T19:26:13.024Z,12.2
2022-10-05T19:31:13.371Z,12.3
2022-10-05T19:37:02.841Z,12.4
2022-10-05T19:42:12.994Z,12.4
2022-10-05T19:48:02.694Z,12.4
2022-10-05T19:53:02.740Z,12.3
2022-10-05T19:58:02.757Z,12.3
2022-10-05T20:03:13.069Z,12.3
2022-10-05T20:08:13.036Z,12.1
2022-10-05T20:13:13.036Z,12.3
2022-10-05T20:19:02.669Z,12.3
2022-10-05T20:24:12.997Z,12.1
2022-10-05T20:29:13.100Z,12
2022-10-05T20:35:02.754Z,12
2022-10-05T20:40:02.850Z,11.8
2022-10-05T20:45:02.887Z,11.9
2022-10-05T20:50:02.984Z,11.9
2022-10-05T20:55:13.237Z,11.8
2022-10-05T21:01:02.999Z,11.9
2022-10-05T21:06:13.250Z,11.8
2022-10-05T21:12:02.985Z,11.8
2022-10-05T21:17:13.209Z,11.8
2022-10-05T21:23:02.939Z,11.8
2022-10-05T21:28:13.312Z,11.7
2022-10-05T21:34:02.920Z,11.8
2022-10-05T21:39:02.939Z,11.7
2022-10-05T21:45:02.955Z,11.5
2022-10-05T21:50:02.946Z,11.5
2022-10-05T21:55:13.275Z,11.6
2022-10-05T22:01:03.097Z,11.5
2022-10-05T22:06:13.031Z,11.6
2022-10-05T22:11:13.032Z,11.6
2022-10-05T22:17:02.835Z,11.6
2022-10-05T22:22:02.928Z,11.5
2022-10-05T22:27:13.233Z,11.6
2022-10-05T22:33:02.961Z,11.6
2022-10-05T22:38:02.938Z,11.6
2022-10-05T22:43:02.948Z,11.5
2022-10-05T22:48:13.045Z,11.5
2022-10-05T22:53:13.256Z,11.5
2022-10-05T22:59:02.740Z,11.8
2022-10-05T23:04:02.822Z,11.2
2022-10-05T23:09:13.278Z,11.1
2022-10-05T23:15:02.909Z,11.5
2022-10-05T23:20:03.004Z,11.5
2022-10-05T23:25:13.219Z,11.5
2022-10-05T23:30:13.271Z,11.5
2022-10-05T23:35:13.323Z,11.4
2022-10-05T23:41:02.956Z,11.3
2022-10-05T23:46:03.108Z,11.4
2022-10-05T23:51:13.303Z,11.5
2022-10-05T23:57:02.961Z,11.6
